Time;durP1;ratioP1;P1;durP2;ratioP2;P2;SDS_P1;SDS_P2;PMS_P1;PMS_P2;Temp;Humidity;BMP_temperature;BMP_pressure;BME280_temperature;BME280_humidity;BME280_pressure;Samples;Min_cycle;Max_cycle;Signal;HPM_P1;HPM_P2
2022/06/06 00:02:04;;;;;;;5.45;4.62;;;;;;;17.55;62.98;99855.83;1693985;83;21540;-61
2022/06/06 00:04:33;;;;;;;5.35;4.62;;;;;;;17.60;63.00;99858.54;1694696;83;21037;-61
2022/06/06 00:07:00;;;;;;;5.78;5.17;;;;;;;17.61;62.78;99854.94;1699939;83;21574;-62
2022/06/06 00:09:28;;;;;;;5.25;4.75;;;;;;;17.55;63.02;99859.81;1699681;83;21568;-62
2022/06/06 00:12:00;;;;;;;5.22;4.55;;;;;;;17.47;63.08;99860.33;1704036;83;21579;-62
2022/06/06 00:14:29;;;;;;;7.65;4.37;;;;;;;17.45;63.05;99856.45;1700583;83;21007;-62
2022/06/06 00:16:55;;;;;;;8.18;4.78;;;;;;;17.51;63.26;99853.36;1705327;83;21010;-61
2022/06/06 00:19:22;;;;;;;5.28;4.78;;;;;;;17.60;63.09;99861.20;1700040;83;21452;-63
2022/06/06 00:21:49;;;;;;;7.12;4.47;;;;;;;17.56;62.97;99861.53;1698772;83;21548;-61
2022/06/06 00:24:16;;;;;;;5.25;4.75;;;;;;;17.51;63.05;99862.66;1706204;83;21538;-64
2022/06/06 00:26:43;;;;;;;6.85;4.92;;;;;;;17.45;63.18;99858.27;1704119;82;21633;-61
2022/06/06 00:29:14;;;;;;;4.78;4.37;;;;;;;17.44;63.36;99861.41;1704674;83;21519;-62
2022/06/06 00:37:14;;;;;;;6.55;4.95;;;;;;;17.45;63.52;99857.77;1703729;83;22009;-61
2022/06/06 00:39:43;;;;;;;;;;;;;;;17.37;63.49;99856.13;1701937;83;21522;-61
2022/06/06 00:42:20;;;;;;;6.12;4.83;;;;;;;17.31;63.83;99857.39;1704767;83;20233;-61
2022/06/06 00:44:47;;;;;;;5.12;4.53;;;;;;;17.23;63.53;99862.35;1698925;83;21088;-61
2022/06/06 00:47:24;;;;;;;5.17;4.67;;;;;;;17.23;63.66;99868.16;1701467;83;22272;-61
2022/06/06 00:50:03;;;;;;;8.30;4.50;;;;;;;17.28;63.77;99868.22;1696892;83;21535;-62
2022/06/06 00:52:36;;;;;;;7.45;4.85;;;;;;;17.31;63.58;99863.19;1681508;83;21433;-61
2022/06/06 00:55:08;;;;;;;5.55;4.83;;;;;;;17.30;63.35;99864.97;1704273;82;21501;-61
2022/06/06 00:57:38;;;;;;;7.42;5.47;;;;;;;17.27;63.36;99870.52;1699823;82;21495;-61
2022/06/06 01:00:09;;;;;;;4.97;4.55;;;;;;;17.19;63.47;99871.97;1701850;83;21993;-61
2022/06/06 01:02:36;;;;;;;6.75;4.80;;;;;;;17.12;63.77;99876.38;1698179;83;21475;-61
2022/06/06 01:05:05;;;;;;;5.87;5.28;;;;;;;17.14;64.02;99877.61;1698943;83;21540;-61
2022/06/06 01:07:31;;;;;;;6.47;5.20;;;;;;;17.21;64.02;99879.36;1702478;83;21495;-61
2022/06/06 01:09:58;;;;;;;8.40;5.60;;;;;;;17.13;63.91;99876.73;1627525;85;21572;-61
2022/06/06 01:12:25;;;;;;;7.62;5.50;;;;;;;17.10;64.04;99876.95;1695691;82;21746;-61
2022/06/06 01:15:00;;;;;;;5.90;5.30;;;;;;;17.07;63.81;99875.81;1706226;82;21507;-62
2022/06/06 01:18:05;;;;;;;5.40;5.00;;;;;;;17.05;63.52;99876.40;1705168;83;21532;-61
2022/06/06 01:21:07;;;;;;;6.37;5.78;;;;;;;17.09;63.60;99876.56;1693888;83;21520;-61
2022/06/06 01:24:22;;;;;;;6.60;5.58;;;;;;;17.06;63.54;99878.09;1693213;83;21572;-61
2022/06/06 01:27:01;;;;;;;7.70;5.85;;;;;;;17.02;63.70;99877.91;1696862;83;21963;-62
2022/06/06 01:29:36;;;;;;;5.75;5.25;;;;;;;16.85;64.19;99876.85;1700097;83;21495;-61
2022/06/06 01:32:12;;;;;;;6.12;5.55;;;;;;;16.84;64.05;99881.31;1703582;83;21452;-61
2022/06/06 01:34:42;;;;;;;11.35;5.47;;;;;;;16.81;63.88;99881.47;1703893;83;21525;-61
2022/06/06 01:37:32;;;;;;;10.20;5.60;;;;;;;16.79;64.15;99879.87;1691616;83;21566;-61
2022/06/06 01:40:01;;;;;;;7.22;6.50;;;;;;;16.72;64.28;99877.59;1697411;83;21825;-61
2022/06/06 01:42:37;;;;;;;9.58;6.70;;;;;;;16.70;64.06;99883.48;1703979;83;21458;-61
2022/06/06 01:45:12;;;;;;;6.53;5.55;;;;;;;16.67;64.05;99887.69;1701499;83;21600;-61
2022/06/06 01:47:44;;;;;;;6.33;5.67;;;;;;;16.68;64.13;99885.39;1702264;83;22281;-61
2022/06/06 01:50:11;;;;;;;5.62;4.97;;;;;;;16.79;64.08;99890.02;1698651;83;21530;-61
2022/06/06 01:53:01;;;;;;;6.03;5.50;;;;;;;16.77;64.04;99888.42;1681046;83;21912;-60
2022/06/06 01:55:30;;;;;;;6.17;5.58;;;;;;;16.74;63.92;99891.66;1700777;83;21559;-60
2022/06/06 01:58:01;;;;;;;7.20;6.60;;;;;;;16.71;63.52;99891.84;1705308;83;21481;-62
2022/06/06 02:00:30;;;;;;;6.78;6.17;;;;;;;16.64;63.51;99887.88;1695829;83;21474;-61
2022/06/06 02:02:57;;;;;;;8.63;5.10;;;;;;;16.60;63.83;99889.51;1694864;83;21525;-61
2022/06/06 02:05:24;;;;;;;9.95;5.92;;;;;;;16.63;63.88;99883.53;1706189;83;21535;-60
2022/06/06 02:07:51;;;;;;;12.53;6.10;;;;;;;16.65;63.70;99886.06;1696160;83;21561;-61
2022/06/06 02:10:18;;;;;;;7.50;6.90;;;;;;;16.68;63.47;99892.03;1700880;83;21518;-61
2022/06/06 02:12:47;;;;;;;7.10;6.40;;;;;;;16.65;63.36;99896.68;1702032;83;21571;-60
2022/06/06 02:15:18;;;;;;;7.50;6.85;;;;;;;16.62;63.42;99892.91;1703543;83;21638;-61
2022/06/06 02:17:45;;;;;;;6.75;6.15;;;;;;;16.58;63.46;99893.58;1706324;83;21811;-61
2022/06/06 02:20:13;;;;;;;6.75;6.15;;;;;;;16.65;63.47;99898.00;1700594;83;21543;-61
2022/06/06 02:22:39;;;;;;;6.55;5.95;;;;;;;16.70;63.49;99898.58;1702834;83;21435;-61
2022/06/06 02:25:09;;;;;;;6.58;5.97;;;;;;;16.78;63.44;99894.94;1705093;83;21488;-60
2022/06/06 02:27:36;;;;;;;7.60;6.58;;;;;;;16.79;63.16;99898.47;1700938;83;21456;-62
2022/06/06 02:30:04;;;;;;;8.65;7.28;;;;;;;16.76;63.28;99896.00;1704841;83;21670;-61
2022/06/06 02:32:31;;;;;;;6.35;5.70;;;;;;;16.76;63.37;99906.13;1700945;83;21361;-61
2022/06/06 02:34:59;;;;;;;6.92;6.35;;;;;;;16.75;63.73;99905.77;1699886;83;21613;-62
2022/06/06 02:37:25;;;;;;;6.72;6.10;;;;;;;16.82;64.23;99900.91;1705869;83;21547;-61
2022/06/06 02:39:52;;;;;;;7.65;6.85;;;;;;;16.92;64.54;99909.55;1700261;83;21016;-61
2022/06/06 02:42:18;;;;;;;7.67;6.92;;;;;;;16.97;64.69;99909.27;1701788;83;21827;-61
2022/06/06 02:44:46;;;;;;;10.13;6.47;;;;;;;16.92;64.91;99910.03;1701684;83;21020;-61
2022/06/06 02:47:12;;;;;;;9.08;6.33;;;;;;;16.92;65.11;99908.70;1703559;83;21506;-61
2022/06/06 02:49:39;;;;;;;8.25;6.40;;;;;;;16.95;65.37;99915.12;1704166;83;20967;-62
2022/06/06 02:52:06;;;;;;;9.00;6.05;;;;;;;17.02;65.61;99910.28;1702151;83;21433;-61
2022/06/06 02:54:33;;;;;;;7.30;6.60;;;;;;;17.08;65.96;99905.42;1704671;83;21755;-61
2022/06/06 02:57:03;;;;;;;8.78;6.47;;;;;;;17.16;66.00;99907.58;1701943;83;21568;-61
2022/06/06 02:59:29;;;;;;;10.15;7.42;;;;;;;17.22;65.92;99901.00;1704640;83;21675;-68
2022/06/06 03:01:56;;;;;;;7.97;7.17;;;;;;;17.29;65.87;99902.27;1698145;83;21590;-62
2022/06/06 03:07:42;;;;;;;8.00;7.22;;;;;;;16.85;70.52;99904.25;1793479;78;23187;-63
2022/06/06 03:10:27;;;;;;;8.15;7.35;;;;;;;17.86;65.60;99900.66;1753719;79;21634;-62
2022/06/06 03:13:25;;;;;;;7.67;7.00;;;;;;;17.93;65.14;99909.05;1763836;79;21426;-62
2022/06/06 03:22:46;;;;;;;8.55;7.67;;;;;;;18.22;64.74;99909.69;1739142;81;20994;-62
2022/06/06 03:25:29;;;;;;;7.60;6.78;;;;;;;18.32;64.45;99909.04;1725827;80;21586;-62
2022/06/06 03:28:13;;;;;;;7.17;6.53;;;;;;;18.37;64.25;99911.75;1715227;81;21907;-61
2022/06/06 03:31:04;;;;;;;8.60;7.12;;;;;;;18.47;64.35;99905.28;1720689;81;21455;-61
2022/06/06 03:34:29;;;;;;;8.73;6.83;;;;;;;18.58;64.08;99901.37;1710990;81;21620;-62
2022/06/06 03:37:19;;;;;;;7.37;6.65;;;;;;;18.72;64.05;99905.69;1739070;81;21510;-63
2022/06/06 03:39:57;;;;;;;9.68;7.62;;;;;;;18.85;63.71;99911.01;1722497;81;21521;-62
2022/06/06 03:42:45;;;;;;;8.30;7.50;;;;;;;18.92;63.38;99907.42;1718963;80;22128;-62
2022/06/06 03:45:15;;;;;;;;;;;;;;;18.97;63.43;99915.45;1731058;81;21549;-62
2022/06/06 03:48:14;;;;;;;8.43;7.62;;;;;;;19.09;63.67;99914.18;1733318;81;20415;-62
2022/06/06 03:51:05;;;;;;;7.05;6.47;;;;;;;19.23;63.19;99911.31;1723958;81;20967;-62
2022/06/06 03:53:56;;;;;;;8.58;7.03;;;;;;;19.37;62.92;99908.97;1725695;81;21561;-62
2022/06/06 03:56:37;;;;;;;8.75;6.80;;;;;;;19.44;62.91;99907.55;1733231;81;21807;-61
2022/06/06 03:59:05;;;;;;;7.35;6.65;;;;;;;19.54;62.69;99911.70;1733993;81;20965;-61
2022/06/06 04:01:33;;;;;;;6.95;6.20;;;;;;;19.58;63.07;99915.83;1729248;80;21493;-62
2022/06/06 04:04:02;;;;;;;8.65;6.47;;;;;;;19.73;63.16;99909.84;1733309;81;21495;-62
2022/06/06 04:06:29;;;;;;;7.60;6.90;;;;;;;19.86;62.90;99912.41;1720777;81;21470;-63
2022/06/06 04:08:55;;;;;;;8.08;6.85;;;;;;;19.93;62.68;99909.61;1754123;80;21906;-63
2022/06/06 04:11:33;;;;;;;9.43;6.75;;;;;;;19.99;62.64;99911.33;1760845;80;21439;-62
2022/06/06 04:14:27;;;;;;;8.25;6.12;;;;;;;20.09;62.11;99908.79;1761499;80;21431;-61
2022/06/06 04:17:37;;;;;;;8.08;6.47;;;;;;;20.20;61.97;99910.63;1760145;80;20939;-62
2022/06/06 04:20:44;;;;;;;6.70;6.08;;;;;;;20.30;61.71;99914.75;1751504;80;21593;-62
2022/06/06 04:23:34;;;;;;;6.67;6.08;;;;;;;20.38;61.38;99913.18;1759205;80;21745;-62
2022/06/06 04:26:21;;;;;;;7.70;6.90;;;;;;;20.41;61.27;99915.59;1737210;80;21475;-61
2022/06/06 04:29:19;;;;;;;7.78;6.95;;;;;;;20.39;61.19;99908.68;1748992;80;21447;-63
2022/06/06 04:31:57;;;;;;;8.65;6.08;;;;;;;20.46;61.34;99915.73;1764212;80;21459;-61
2022/06/06 04:34:57;;;;;;;7.53;5.42;;;;;;;20.61;60.80;99914.03;1754232;80;21404;-62
2022/06/06 04:37:38;;;;;;;5.58;5.05;;;;;;;20.69;60.31;99908.07;1753752;80;21438;-61
2022/06/06 04:40:42;;;;;;;5.62;4.90;;;;;;;20.82;59.79;99909.77;1729714;80;21541;-61
2022/06/06 04:43:28;;;;;;;5.53;4.90;;;;;;;20.92;59.27;99916.04;1757657;80;21640;-61
2022/06/06 04:46:15;;;;;;;5.10;4.22;;;;;;;20.97;58.44;99917.36;1753016;80;21514;-65
2022/06/06 04:48:44;;;;;;;4.65;3.95;;;;;;;21.06;58.15;99921.11;1747506;80;21548;-62
2022/06/06 04:51:11;;;;;;;3.87;3.58;;;;;;;21.26;57.96;99926.63;1747151;80;21925;-62
2022/06/06 04:53:40;;;;;;;3.52;3.33;;;;;;;21.29;57.16;99930.39;1757863;80;21574;-62
2022/06/06 04:56:07;;;;;;;4.83;3.50;;;;;;;21.39;56.58;99921.95;1751225;80;21648;-62
2022/06/06 04:58:35;;;;;;;6.12;4.08;;;;;;;21.50;56.33;99919.75;1758235;80;21443;-62
2022/06/06 05:01:02;;;;;;;5.83;3.45;;;;;;;21.56;56.08;99924.58;1759170;80;21518;-62
2022/06/06 05:03:29;;;;;;;6.62;3.90;;;;;;;21.58;55.84;99921.28;1749345;80;21462;-63
2022/06/06 05:06:32;;;;;;;4.22;3.50;;;;;;;21.62;55.26;99928.06;1752828;80;21561;-62
2022/06/06 05:09:27;;;;;;;4.50;3.45;;;;;;;21.70;54.87;99929.62;1759194;80;21506;-62
2022/06/06 05:12:34;;;;;;;6.40;3.17;;;;;;;21.90;54.64;99915.86;1769959;78;21522;-61
2022/06/06 05:15:37;;;;;;;8.05;3.20;;;;;;;22.00;53.96;99919.08;1757250;80;20974;-61
2022/06/06 05:18:34;;;;;;;7.10;2.85;;;;;;;22.07;52.54;99922.94;1761458;79;21853;-62
2022/06/06 05:21:44;;;;;;;3.10;2.80;;;;;;;22.19;51.87;99930.38;1760586;79;21427;-62
2022/06/06 05:24:22;;;;;;;3.00;2.70;;;;;;;22.29;50.84;99936.69;1768086;79;20999;-62
2022/06/06 05:27:15;;;;;;;3.62;2.52;;;;;;;22.37;50.50;99941.37;1771446;79;20986;-57
2022/06/06 05:30:08;;;;;;;4.80;2.22;;;;;;;22.46;50.17;99940.06;1722027;79;21427;-59
2022/06/06 05:33:09;;;;;;;2.40;2.00;;;;;;;22.49;47.40;99933.11;1766963;80;21794;-59
2022/06/06 05:36:01;;;;;;;2.20;2.00;;;;;;;22.57;46.24;99941.80;1765185;80;21060;-59
2022/06/06 05:38:45;;;;;;;2.30;2.08;;;;;;;22.58;45.79;99939.97;1759113;80;21521;-59
2022/06/06 05:41:39;;;;;;;4.78;2.10;;;;;;;22.67;45.69;99944.52;1758968;80;21563;-60
2022/06/06 05:44:20;;;;;;;3.77;2.67;;;;;;;22.73;45.24;99956.89;1757547;80;21488;-59
2022/06/06 05:47:18;;;;;;;3.52;2.05;;;;;;;22.74;44.55;99951.03;1768641;80;21893;-60
2022/06/06 05:50:19;;;;;;;4.58;1.98;;;;;;;22.78;44.74;99954.29;1765401;80;21606;-59
2022/06/06 05:53:00;;;;;;;2.33;2.10;;;;;;;22.84;44.65;99952.39;1764079;80;21577;-58
2022/06/06 05:56:06;;;;;;;3.72;2.27;;;;;;;22.92;44.16;99949.39;1766148;80;21462;-58
2022/06/06 05:58:54;;;;;;;4.53;2.62;;;;;;;22.98;44.12;99949.33;1765962;80;21498;-65
2022/06/06 06:01:50;;;;;;;2.33;2.02;;;;;;;23.03;43.67;99952.45;1759206;78;21797;-59
2022/06/06 06:04:47;;;;;;;3.87;2.20;;;;;;;23.12;43.62;99955.65;1732201;82;21085;-59
2022/06/06 06:07:58;;;;;;;2.43;2.23;;;;;;;23.19;43.83;99954.62;1727317;81;21555;-60
2022/06/06 06:10:34;;;;;;;2.00;1.80;;;;;;;23.28;43.05;99964.51;1695326;82;21762;-57
2022/06/06 06:13:32;;;;;;;2.45;1.90;;;;;;;23.37;43.24;99960.63;1695333;82;21537;-55
2022/06/06 06:16:00;;;;;;;2.40;2.00;;;;;;;23.42;42.41;99959.21;1691767;82;21849;-60
2022/06/06 06:18:44;;;;;;;2.55;1.90;;;;;;;23.54;42.55;99963.09;1669101;83;21471;-62
2022/06/06 06:21:24;;;;;;;2.47;2.20;;;;;;;23.62;42.23;99963.23;1697071;82;21583;-59
2022/06/06 06:23:56;;;;;;;2.90;1.80;;;;;;;23.69;42.61;99966.54;1695681;82;21625;-59
2022/06/06 06:26:23;;;;;;;2.80;1.95;;;;;;;23.80;41.54;99959.38;1689268;82;21510;-57
2022/06/06 06:28:49;;;;;;;2.83;2.00;;;;;;;23.86;41.24;99964.16;1695808;82;21802;-60
2022/06/06 06:31:24;;;;;;;2.10;2.00;;;;;;;23.97;41.53;99961.31;1693422;82;21572;-60
2022/06/06 06:34:29;;;;;;;1.90;1.80;;;;;;;24.08;40.78;99966.52;1692244;82;21033;-59
2022/06/06 06:37:14;;;;;;;2.22;1.95;;;;;;;24.15;40.81;99965.46;1696581;83;21451;-60
2022/06/06 06:40:01;;;;;;;2.35;1.95;;;;;;;24.28;40.47;99969.18;1700777;82;21096;-60
2022/06/06 06:43:10;;;;;;;2.10;1.90;;;;;;;24.34;39.77;99969.09;1686593;82;22192;-59
2022/06/06 06:45:47;;;;;;;7.50;1.90;;;;;;;24.47;38.71;99969.09;1695724;82;21658;-59
2022/06/06 06:48:26;;;;;;;2.12;1.60;;;;;;;24.47;38.71;99969.09;1682577;82;21539;-59
2022/06/06 06:51:05;;;;;;;2.42;1.75;;;;;;;24.51;38.43;99962.09;1685470;83;21561;-59
2022/06/06 06:54:03;;;;;;;2.77;1.40;;;;;;;24.59;38.83;99966.25;1693389;82;21446;-58
2022/06/06 06:57:05;;;;;;;3.12;1.80;;;;;;;24.64;38.99;99968.84;1692899;82;21776;-58
2022/06/06 06:59:47;;;;;;;3.75;1.60;;;;;;;24.71;37.33;99973.11;1700257;82;20985;-59
2022/06/06 07:09:02;;;;;;;4.03;2.10;;;;;;;24.92;37.44;99965.30;1684815;83;21606;-61
2022/06/06 07:11:44;;;;;;;2.90;1.98;;;;;;;24.98;37.34;99971.44;1651020;85;21962;-60
2022/06/06 07:14:43;;;;;;;3.08;2.12;;;;;;;25.09;36.88;99968.54;1655561;85;21593;-59
2022/06/06 07:17:10;;;;;;;3.60;2.10;;;;;;;25.14;36.17;99968.91;1681713;83;21621;-60
2022/06/06 07:19:47;;;;;;;3.40;2.42;;;;;;;25.14;36.17;99968.91;1686646;83;21531;-60
2022/06/06 07:22:15;;;;;;;2.80;2.20;;;;;;;25.13;36.35;99970.40;1683186;83;21579;-60
2022/06/06 07:24:44;;;;;;;3.72;2.33;;;;;;;25.13;36.35;99970.40;1686254;83;21479;-60
2022/06/06 07:27:11;;;;;;;4.03;2.35;;;;;;;25.15;36.40;99966.58;1682250;83;22178;-60
2022/06/06 07:29:38;;;;;;;3.60;2.25;;;;;;;25.20;36.43;99968.33;1679463;83;21431;-60
2022/06/06 07:32:19;;;;;;;2.58;2.10;;;;;;;25.28;37.05;99964.03;1682009;83;20974;-60
2022/06/06 07:35:03;;;;;;;3.20;2.30;;;;;;;25.48;37.14;99966.08;1681207;83;21461;-60
2022/06/06 07:38:07;;;;;;;3.05;2.20;;;;;;;25.48;37.14;99966.08;1682610;83;21821;-60
2022/06/06 07:41:08;;;;;;;4.20;2.35;;;;;;;25.57;36.09;99969.20;1683316;83;21511;-60
2022/06/06 07:43:55;;;;;;;2.33;1.87;;;;;;;25.62;35.64;99971.77;1628010;83;21100;-61
2022/06/06 07:46:49;;;;;;;2.87;1.92;;;;;;;25.72;35.13;99973.03;1680206;83;21558;-60
2022/06/06 07:49:24;;;;;;;1.90;1.80;;;;;;;25.78;35.18;99967.52;1683744;83;21440;-60
2022/06/06 07:52:15;;;;;;;2.05;1.52;;;;;;;25.74;35.46;99977.75;1680271;83;22031;-60
2022/06/06 07:54:57;;;;;;;3.60;1.72;;;;;;;25.61;35.40;99982.69;1659232;83;21548;-59
2022/06/06 07:57:55;;;;;;;1.87;1.77;;;;;;;25.55;35.31;99983.31;1680308;83;21559;-61
2022/06/06 08:00:25;;;;;;;2.30;1.82;;;;;;;25.60;35.17;99985.05;1685511;83;21021;-60
2022/06/06 08:03:07;;;;;;;1.90;1.77;;;;;;;25.64;33.80;99980.53;1681981;83;21456;-60
2022/06/06 08:06:18;;;;;;;4.67;1.67;;;;;;;25.66;34.54;99983.59;1679532;83;21792;-60
2022/06/06 08:09:15;;;;;;;2.35;2.02;;;;;;;25.57;34.17;99975.42;1680999;82;21545;-60
2022/06/06 08:12:01;;;;;;;;;;;;;;;25.57;34.17;99975.42;1666783;84;21474;-60
2022/06/06 08:14:57;;;;;;;3.75;1.77;;;;;;;25.85;34.50;99973.98;1617421;86;20540;-61
2022/06/06 08:17:44;;;;;;;3.35;1.87;;;;;;;25.85;34.50;99973.98;1657104;84;21510;-60
2022/06/06 08:20:42;;;;;;;2.45;1.50;;;;;;;26.04;34.35;99968.93;1629146;86;22029;-60
2022/06/06 08:23:09;;;;;;;2.85;1.70;;;;;;;26.21;33.88;99980.15;1669543;84;21609;-63
2022/06/06 08:25:37;;;;;;;2.90;1.80;;;;;;;26.25;33.40;99978.50;1659784;84;20970;-61
2022/06/06 08:28:04;;;;;;;;;;;;;;;26.25;33.23;99972.59;1666904;84;21550;-60
2022/06/06 08:30:33;;;;;;;3.37;1.85;;;;;;;26.21;33.52;99969.37;1657652;84;20431;-60
2022/06/06 08:32:59;;;;;;;1.67;1.57;;;;;;;26.22;34.45;99964.34;1657789;84;21550;-60
2022/06/06 08:35:31;;;;;;;2.17;2.08;;;;;;;26.30;34.81;99965.39;1658832;84;21523;-59
2022/06/06 08:38:09;;;;;;;2.90;2.00;;;;;;;26.38;34.40;99962.22;1660808;84;21466;-62
2022/06/06 08:41:06;;;;;;;1.85;1.75;;;;;;;26.41;34.21;99957.88;1661673;84;21459;-59
2022/06/06 08:43:50;;;;;;;2.10;1.90;;;;;;;26.26;34.53;99953.22;1639091;84;21597;-59
2022/06/06 08:46:42;;;;;;;2.50;2.30;;;;;;;25.96;34.94;99960.29;1660322;84;21891;-57
2022/06/06 08:52:42;;;;;;;2.80;1.87;;;;;;;25.66;36.33;99953.97;1658150;84;21624;-59
2022/06/06 08:55:27;;;;;;;5.03;2.60;;;;;;;25.74;36.31;99949.98;1661929;84;21656;-59
2022/06/06 08:58:21;;;;;;;2.98;2.12;;;;;;;25.86;36.18;99952.76;1608958;84;21455;-59
2022/06/06 09:01:14;;;;;;;2.50;2.30;;;;;;;25.96;35.69;99949.52;1661411;84;21800;-59
2022/06/06 09:04:21;;;;;;;2.60;2.30;;;;;;;25.97;35.64;99946.31;1658619;84;21444;-60
2022/06/06 09:07:43;;;;;;;2.33;2.02;;;;;;;25.97;36.72;99955.23;1665447;84;21462;-60
2022/06/06 09:11:06;;;;;;;2.40;2.20;;;;;;;26.02;34.91;99952.08;1673190;83;21057;-63
2022/06/06 09:13:53;;;;;;;2.58;2.35;;;;;;;26.13;34.49;99941.55;1676197;83;21488;-60
2022/06/06 09:16:37;;;;;;;3.98;1.90;;;;;;;26.37;34.82;99938.98;1681894;83;21866;-61
2022/06/06 09:19:15;;;;;;;5.60;2.42;;;;;;;26.66;33.82;99936.44;1683157;83;21484;-60
2022/06/06 09:22:35;;;;;;;2.22;2.02;;;;;;;26.81;33.70;99943.41;1681048;83;21916;-59
2022/06/06 09:25:53;;;;;;;2.15;2.05;;;;;;;26.95;34.11;99943.27;1680255;83;21573;-59
2022/06/06 09:28:41;;;;;;;2.77;2.08;;;;;;;26.95;34.11;99943.27;1681221;84;21518;-59
2022/06/06 09:31:29;;;;;;;2.30;2.10;;;;;;;27.04;33.46;99934.19;1683555;83;21856;-60
2022/06/06 09:34:19;;;;;;;1.87;1.77;;;;;;;27.28;34.21;99932.08;1684751;83;21449;-59
2022/06/06 09:37:18;;;;;;;5.83;2.50;;;;;;;27.28;34.21;99932.08;1685758;83;21528;-60
2022/06/06 09:40:00;;;;;;;2.62;2.42;;;;;;;27.54;31.94;99940.03;1684153;83;21498;-60
2022/06/06 09:42:43;;;;;;;5.95;2.50;;;;;;;27.48;31.42;99934.45;1685485;83;21006;-60
2022/06/06 09:45:54;;;;;;;5.83;2.25;;;;;;;27.40;31.38;99934.45;1686474;83;21804;-60
2022/06/06 09:49:07;;;;;;;3.37;2.00;;;;;;;27.29;31.37;99931.56;1684014;83;21510;-59
2022/06/06 09:51:48;;;;;;;2.45;2.25;;;;;;;27.37;31.98;99931.59;1607059;86;21605;-61
2022/06/06 10:01:42;;;;;;;2.10;1.90;;;;;;;27.26;32.70;99938.67;1685456;83;21748;-60
2022/06/06 10:04:20;;;;;;;1.90;1.80;;;;;;;27.18;32.78;99938.09;1681884;83;21135;-61
2022/06/06 10:06:59;;;;;;;2.10;2.00;;;;;;;27.42;32.71;99943.23;1681519;83;21466;-59
2022/06/06 10:09:41;;;;;;;2.20;2.00;;;;;;;27.66;32.68;99932.94;1694085;83;21578;-60
2022/06/06 10:12:49;;;;;;;3.15;2.20;;;;;;;27.76;30.03;99926.36;1632414;83;21472;-62
2022/06/06 10:15:29;;;;;;;4.58;1.77;;;;;;;27.89;31.35;99925.84;1685062;83;22028;-60
2022/06/06 10:18:25;;;;;;;1.85;1.75;;;;;;;27.90;30.33;99928.06;1684165;83;21435;-60
2022/06/06 10:21:38;;;;;;;1.85;1.70;;;;;;;27.82;31.30;99931.59;1687377;83;21476;-60
2022/06/06 10:24:29;;;;;;;1.87;1.67;;;;;;;27.67;32.14;99919.76;1679207;83;21516;-60
2022/06/06 10:27:41;;;;;;;2.30;2.10;;;;;;;27.70;32.66;99919.43;1686079;83;20989;-60
2022/06/06 10:30:19;;;;;;;2.95;1.80;;;;;;;27.75;32.44;99923.83;1679493;83;21838;-59
2022/06/06 10:33:27;;;;;;;2.37;2.00;;;;;;;27.66;32.17;99924.33;1685213;83;21598;-61
2022/06/06 10:36:33;;;;;;;3.50;1.80;;;;;;;27.71;32.40;99914.38;1682310;83;21549;-61
2022/06/06 10:39:12;;;;;;;2.47;1.98;;;;;;;27.95;33.25;99913.02;1680194;83;21497;-60
2022/06/06 10:42:13;;;;;;;3.05;2.08;;;;;;;28.30;31.85;99907.35;1684271;83;21908;-60
2022/06/06 10:45:22;;;;;;;2.20;2.00;;;;;;;28.51;30.93;99911.64;1684865;83;21982;-60
2022/06/06 10:48:24;;;;;;;2.80;2.05;;;;;;;28.57;31.07;99899.31;1681660;83;21572;-62
2022/06/06 10:54:31;;;;;;;2.50;1.82;;;;;;;28.59;30.68;99907.26;1680576;83;21570;-61
2022/06/06 10:57:32;;;;;;;2.35;1.60;;;;;;;28.24;30.88;99908.89;1686932;83;21455;-59
2022/06/06 11:00:43;;;;;;;1.75;1.65;;;;;;;27.85;31.32;99906.08;1679891;83;21793;-59
2022/06/06 11:03:27;;;;;;;2.02;1.70;;;;;;;27.63;32.08;99902.21;1645486;85;21585;-60
2022/06/06 11:06:20;;;;;;;1.67;1.55;;;;;;;27.53;31.31;99899.17;1645419;85;21471;-61
2022/06/06 11:09:11;;;;;;;4.22;1.60;;;;;;;27.73;31.22;99897.49;1647229;84;21640;-59
2022/06/06 11:12:04;;;;;;;7.53;1.60;;;;;;;27.95;31.31;99894.59;1629383;84;21438;-59
2022/06/06 11:14:44;;;;;;;3.95;1.70;;;;;;;28.13;31.41;99887.64;1649945;84;22105;-60
2022/06/06 11:17:31;;;;;;;1.70;1.60;;;;;;;28.41;30.29;99889.91;1646518;85;21120;-60
2022/06/06 11:20:30;;;;;;;;;;;;;;;28.62;29.25;99887.47;1649127;85;21460;-59
2022/06/06 11:23:15;;;;;;;3.30;1.80;;;;;;;28.63;27.38;99882.89;1645848;84;20568;-60
2022/06/06 11:26:06;;;;;;;2.20;1.52;;;;;;;28.47;28.59;99877.87;1647102;84;21096;-60
2022/06/06 11:29:03;;;;;;;1.95;1.85;;;;;;;28.62;29.40;99877.16;1599961;86;21993;-60
2022/06/06 11:32:05;;;;;;;;;;;;;;;28.81;29.43;99865.05;1650201;84;21666;-60
2022/06/06 11:35:09;;;;;;;1.82;1.67;;;;;;;29.02;29.25;99861.69;1644449;86;20475;-60
2022/06/06 11:38:00;;;;;;;2.95;1.60;;;;;;;29.25;28.72;99858.52;1646312;86;20990;-59
2022/06/06 11:41:01;;;;;;;2.85;1.62;;;;;;;29.48;29.00;99855.77;1647424;85;21523;-59
2022/06/06 11:43:53;;;;;;;1.65;1.47;;;;;;;29.63;28.80;99864.41;1633722;85;21573;-59
2022/06/06 11:46:53;;;;;;;2.52;1.22;;;;;;;29.62;27.45;99870.35;1637983;85;21526;-59
2022/06/06 11:49:34;;;;;;;3.35;1.60;;;;;;;29.60;27.13;99861.56;1647439;85;21551;-60
2022/06/06 11:52:32;;;;;;;1.62;1.52;;;;;;;29.53;26.96;99863.84;1647468;85;21471;-60
2022/06/06 11:55:18;;;;;;;2.77;1.57;;;;;;;29.39;27.34;99861.44;1646188;85;21498;-60
2022/06/06 11:58:03;;;;;;;2.03;1.80;;;;;;;29.45;27.74;99858.83;1646898;86;21505;-60
2022/06/06 12:00:53;;;;;;;4.87;1.85;;;;;;;29.68;27.69;99863.36;1647371;85;21592;-61
2022/06/06 12:03:34;;;;;;;2.42;2.05;;;;;;;29.84;28.52;99863.23;1678001;84;21319;-61
2022/06/06 12:06:25;;;;;;;3.37;1.80;;;;;;;29.87;28.10;99864.71;1680793;84;21474;-61
2022/06/06 12:09:18;;;;;;;4.75;1.87;;;;;;;29.81;28.90;99870.88;1679413;84;20998;-60
2022/06/06 12:12:28;;;;;;;2.10;1.90;;;;;;;29.69;28.69;99865.05;1678956;83;21857;-60
2022/06/06 12:15:47;;;;;;;2.22;1.60;;;;;;;29.40;29.31;99866.65;1678602;84;21570;-60
2022/06/06 12:18:59;;;;;;;3.65;2.30;;;;;;;29.27;28.85;99861.02;1677231;83;21054;-59
2022/06/06 12:21:37;;;;;;;1.70;1.60;;;;;;;29.43;28.91;99856.81;1682469;84;21633;-59
2022/06/06 12:24:21;;;;;;;2.75;1.77;;;;;;;29.68;28.28;99853.35;1677538;83;21618;-59
2022/06/06 12:27:11;;;;;;;2.02;1.90;;;;;;;29.72;27.29;99850.28;1688288;83;22048;-66
2022/06/06 12:29:49;;;;;;;1.67;1.47;;;;;;;29.71;27.62;99846.73;1680484;83;21578;-60
2022/06/06 12:32:24;;;;;;;2.35;1.40;;;;;;;29.82;27.26;99850.88;1683035;83;21550;-59
2022/06/06 12:35:04;;;;;;;1.45;1.40;;;;;;;29.87;26.99;99843.03;1682181;83;21716;-60
2022/06/06 12:37:55;;;;;;;4.37;1.55;;;;;;;29.98;27.18;99845.80;1680013;83;21558;-58
2022/06/06 12:40:47;;;;;;;3.47;1.67;;;;;;;30.15;27.78;99838.31;1671487;83;22128;-67
2022/06/06 12:43:22;;;;;;;1.65;1.55;;;;;;;30.08;27.42;99842.28;1678047;83;21605;-62
2022/06/06 12:46:33;;;;;;;1.70;1.60;;;;;;;30.27;27.08;99839.50;1677296;83;20977;-61
2022/06/06 12:49:11;;;;;;;1.55;1.45;;;;;;;30.42;26.25;99834.09;1676085;83;21062;-61
2022/06/06 12:52:36;;;;;;;2.00;1.90;;;;;;;30.33;27.04;99833.87;1676888;85;21527;-60
2022/06/06 12:56:17;;;;;;;2.37;1.72;;;;;;;30.36;26.87;99830.78;1612847;86;22705;-60
2022/06/06 12:58:42;;;;;;;2.37;1.50;;;;;;;30.18;27.46;99826.58;1675867;83;21138;-63
2022/06/06 13:01:38;;;;;;;2.90;1.92;;;;;;;30.06;28.00;99824.88;1676534;83;21712;-61
2022/06/06 13:04:42;;;;;;;1.62;1.52;;;;;;;30.01;28.46;99827.30;1677181;83;21530;-60
2022/06/06 13:07:53;;;;;;;1.72;1.60;;;;;;;29.96;27.50;99828.89;1678716;83;21108;-60
2022/06/06 13:10:42;;;;;;;3.98;2.00;;;;;;;29.80;27.00;99819.05;1676042;83;21985;-59
2022/06/06 13:13:34;;;;;;;7.03;1.80;;;;;;;29.84;28.09;99819.88;1676911;83;21589;-61
2022/06/06 13:16:06;;;;;;;1.80;1.60;;;;;;;30.06;28.13;99816.74;1677086;83;21672;-61
2022/06/06 13:19:05;;;;;;;2.27;1.67;;;;;;;30.22;28.49;99816.20;1676316;83;21634;-60
2022/06/06 13:22:08;;;;;;;2.58;1.57;;;;;;;30.43;28.16;99827.13;1649122;83;21611;-61
2022/06/06 13:25:27;;;;;;;1.60;1.50;;;;;;;30.49;27.43;99818.73;1674699;83;21885;-61
2022/06/06 13:28:01;;;;;;;2.65;1.90;;;;;;;30.53;27.09;99815.96;1674492;83;20994;-60
2022/06/06 13:30:48;;;;;;;1.98;1.87;;;;;;;30.61;27.24;99817.71;1675264;83;21527;-60
2022/06/06 13:33:47;;;;;;;2.77;1.40;;;;;;;30.68;26.73;99813.20;1627322;85;21620;-60